createdAt,value
2022-10-01T00:01:20.632Z,11.96
2022-10-01T00:03:48.692Z,12.01
2022-10-01T00:06:19.072Z,11.90
2022-10-01T00:08:50.594Z,11.99
2022-10-01T00:11:20.900Z,11.97
2022-10-01T00:13:49.475Z,11.82
2022-10-01T00:16:20.359Z,11.99
2022-10-01T00:18:49.551Z,11.91
2022-10-01T00:21:19.498Z,11.96
2022-10-01T00:23:49.597Z,11.93
2022-10-01T00:26:19.200Z,11.98
2022-10-01T00:28:49.409Z,11.98
2022-10-01T00:31:17.393Z,11.83
2022-10-01T00:33:45.323Z,11.76
2022-10-01T00:36:13.324Z,11.89
2022-10-01T00:38:41.626Z,11.78
2022-10-01T00:41:11.175Z,11.87
2022-10-01T00:43:43.565Z,11.87
2022-10-01T00:46:18.775Z,11.85
2022-10-01T00:48:53.310Z,11.61
2022-10-01T00:51:21.738Z,11.49
2022-10-01T00:53:49.823Z,11.34
2022-10-01T00:56:19.912Z,10.90
2022-10-01T00:58:48.973Z,10.91
2022-10-01T01:01:17.093Z,10.68
2022-10-01T01:03:45.064Z,10.85
2022-10-01T01:06:13.086Z,10.77
2022-10-01T01:08:40.972Z,10.74
2022-10-01T01:11:15.875Z,10.67
2022-10-01T01:13:52.870Z,10.62
2022-10-01T01:16:27.969Z,10.52
2022-10-01T01:19:03.367Z,10.56
2022-10-01T01:21:34.418Z,10.52
2022-10-01T01:24:35.375Z,10.51
2022-10-01T01:27:16.358Z,10.42
2022-10-01T01:29:53.024Z,10.16
2022-10-01T01:32:27.515Z,10.40
2022-10-01T01:35:01.260Z,10.27
2022-10-01T01:37:33.590Z,10.28
2022-10-01T01:40:04.511Z,10.20
2022-10-01T01:42:37.357Z,10.22
2022-10-01T01:45:11.354Z,10.23
2022-10-01T01:47:42.191Z,10.22
2022-10-01T01:50:13.535Z,10.13
2022-10-01T01:52:42.022Z,10.31
2022-10-01T01:55:10.837Z,10.14
2022-10-01T01:57:41.968Z,10.18
2022-10-01T02:00:12.934Z,10.28
2022-10-01T02:02:45.538Z,10.25
2022-10-01T02:05:18.863Z,10.17
2022-10-01T02:08:17.651Z,10.13
2022-10-01T02:11:00.706Z,9.99
2022-10-01T02:13:39.010Z,10.08
2022-10-01T02:16:19.521Z,10.10
2022-10-01T02:18:53.555Z,10.09
2022-10-01T02:21:24.170Z,10.07
2022-10-01T02:23:58.144Z,10.06
2022-10-01T02:26:28.093Z,9.91
2022-10-01T02:28:59.519Z,10.06
2022-10-01T02:31:30.562Z,10.05
2022-10-01T02:34:00.751Z,9.87
2022-10-01T02:36:30.750Z,9.93
2022-10-01T02:39:00.420Z,9.82
2022-10-01T02:41:32.920Z,9.80
2022-10-01T02:44:05.424Z,9.85
2022-10-01T02:46:42.152Z,9.85
2022-10-01T02:49:11.420Z,9.89
2022-10-01T02:51:46.117Z,9.85
2022-10-01T02:54:18.850Z,9.83
2022-10-01T02:57:05.414Z,9.74
2022-10-01T02:59:33.183Z,9.72
2022-10-01T03:02:02.511Z,9.73
2022-10-01T03:04:30.332Z,9.78
2022-10-01T03:07:03.361Z,9.80
2022-10-01T03:09:32.352Z,9.79
2022-10-01T03:12:00.279Z,9.72
2022-10-01T03:14:28.579Z,9.76
2022-10-01T03:16:56.547Z,9.72
2022-10-01T03:19:25.686Z,9.69
2022-10-01T03:21:53.453Z,9.73
2022-10-01T03:24:21.179Z,9.75
2022-10-01T03:26:49.230Z,9.58
2022-10-01T03:29:16.946Z,9.58
2022-10-01T03:31:44.887Z,9.69
2022-10-01T03:34:13.594Z,9.71
2022-10-01T03:36:42.766Z,9.76
2022-10-01T03:39:10.575Z,9.63
2022-10-01T03:41:38.297Z,9.69
2022-10-01T03:44:06.324Z,9.62
2022-10-01T03:46:34.289Z,9.67
2022-10-01T03:49:02.195Z,9.71
2022-10-01T03:51:30.906Z,9.74
2022-10-01T03:54:00.323Z,9.66
2022-10-01T03:56:28.044Z,9.66
2022-10-01T03:58:55.788Z,9.69
2022-10-01T04:01:23.794Z,9.75
2022-10-01T04:03:52.127Z,9.67
2022-10-01T04:06:20.239Z,9.74
2022-10-01T04:08:47.982Z,9.74
2022-10-01T04:11:17.258Z,9.61
2022-10-01T04:13:44.938Z,9.76
2022-10-01T04:16:12.852Z,9.68
2022-10-01T04:18:40.640Z,9.67
2022-10-01T04:21:08.673Z,9.73
2022-10-01T04:23:36.348Z,9.76
2022-10-01T04:26:04.575Z,9.76
2022-10-01T04:28:33.728Z,9.77
2022-10-01T04:31:18.739Z,9.84
2022-10-01T04:33:46.680Z,9.83
2022-10-01T04:36:14.728Z,9.90
2022-10-01T04:38:42.893Z,9.93
2022-10-01T04:41:10.900Z,9.98
2022-10-01T04:43:40.424Z,9.96
2022-10-01T04:46:08.254Z,9.93
2022-10-01T04:48:36.070Z,10.04
2022-10-01T04:51:03.852Z,10.00
2022-10-01T04:53:31.744Z,9.98
2022-10-01T04:55:59.518Z,10.05
2022-10-01T04:58:27.721Z,10.10
2022-10-01T05:01:01.688Z,10.18
2022-10-01T05:03:30.139Z,10.24
2022-10-01T05:05:57.879Z,10.07
2022-10-01T05:08:25.656Z,10.23
2022-10-01T05:10:53.408Z,10.20
2022-10-01T05:13:21.129Z,10.28
2022-10-01T05:15:52.254Z,10.28
2022-10-01T05:18:21.567Z,10.34
2022-10-01T05:20:49.298Z,10.34
2022-10-01T05:23:17.021Z,10.26
2022-10-01T05:25:46.819Z,10.29
2022-10-01T05:28:18.465Z,10.33
2022-10-01T05:30:51.064Z,10.34
2022-10-01T05:33:19.131Z,10.30
2022-10-01T05:35:48.293Z,10.27
2022-10-01T05:38:16.181Z,10.18
2022-10-01T05:40:47.341Z,10.23
2022-10-01T05:43:15.974Z,10.08
2022-10-01T05:45:43.834Z,10.08
2022-10-01T05:48:12.845Z,10.09
2022-10-01T05:50:42.469Z,10.11
2022-10-01T05:53:14.065Z,10.06
2022-10-01T05:55:41.867Z,9.96
2022-10-01T05:58:11.478Z,9.97
2022-10-01T06:00:40.584Z,9.91
2022-10-01T06:03:09.250Z,10.02
2022-10-01T06:05:38.463Z,10.07
2022-10-01T06:08:07.358Z,10.05
2022-10-01T06:10:38.055Z,10.13
2022-10-01T06:13:06.995Z,10.18
2022-10-01T06:15:37.681Z,10.20
2022-10-01T06:18:07.351Z,10.14
2022-10-01T06:20:35.638Z,10.19
2022-10-01T06:23:05.981Z,10.30
2022-10-01T06:25:36.369Z,10.32
2022-10-01T06:28:06.882Z,10.17
2022-10-01T06:30:36.850Z,10.32
2022-10-01T06:33:06.515Z,10.35
2022-10-01T06:35:35.953Z,10.21
2022-10-01T06:38:03.826Z,10.22
2022-10-01T06:40:32.790Z,10.12
2022-10-01T06:43:00.647Z,10.21
2022-10-01T06:45:31.280Z,10.20
2022-10-01T06:48:02.711Z,10.27
2022-10-01T06:50:31.950Z,10.14
2022-10-01T06:53:00.237Z,10.31
2022-10-01T06:55:31.288Z,10.24
2022-10-01T06:58:00.421Z,10.28
2022-10-01T07:00:31.694Z,10.34
2022-10-01T07:03:00.765Z,10.22
2022-10-01T07:05:29.283Z,10.33
2022-10-01T07:07:57.035Z,10.27
2022-10-01T07:10:25.512Z,10.44
2022-10-01T07:12:53.290Z,10.42
2022-10-01T07:15:23.892Z,10.51
2022-10-01T07:17:53.831Z,10.56
2022-10-01T07:20:22.748Z,10.57
2022-10-01T07:22:56.885Z,10.53
2022-10-01T07:25:26.903Z,10.52
2022-10-01T07:27:56.841Z,10.53
2022-10-01T07:30:25.033Z,10.57
2022-10-01T07:32:54.339Z,10.57
2022-10-01T07:35:22.608Z,10.47
2022-10-01T07:37:50.963Z,10.48
2022-10-01T07:40:19.803Z,10.52
2022-10-01T07:42:54.533Z,10.66
2022-10-01T07:45:22.770Z,10.64
2022-10-01T07:47:56.040Z,10.55
2022-10-01T07:50:24.586Z,10.77
2022-10-01T07:52:53.790Z,10.75
2022-10-01T07:55:22.092Z,10.72
2022-10-01T07:57:53.392Z,10.80
2022-10-01T08:00:22.365Z,10.79
2022-10-01T08:02:51.319Z,10.89
2022-10-01T08:05:21.795Z,10.86
2022-10-01T08:07:50.682Z,11.02
2022-10-01T08:10:20.314Z,11.01
2022-10-01T08:12:48.252Z,11.10
2022-10-01T08:15:17.939Z,11.17
2022-10-01T08:17:46.543Z,11.17
2022-10-01T08:20:16.902Z,11.17
2022-10-01T08:22:46.129Z,11.40
2022-10-01T08:25:14.311Z,11.40
2022-10-01T08:27:42.217Z,11.35
2022-10-01T08:30:11.043Z,11.55
2022-10-01T08:32:38.836Z,11.53
2022-10-01T08:35:07.455Z,11.59
2022-10-01T08:37:35.290Z,11.68
2022-10-01T08:40:05.173Z,11.95
2022-10-01T08:42:43.517Z,12.27
2022-10-01T08:45:15.637Z,12.15
2022-10-01T08:47:49.479Z,12.45
2022-10-01T08:50:32.728Z,12.49
2022-10-01T08:53:04.258Z,12.68
2022-10-01T08:55:37.511Z,12.70
2022-10-01T08:58:06.916Z,12.97
2022-10-01T09:00:39.893Z,12.90
2022-10-01T09:03:12.878Z,13.01
2022-10-01T09:06:03.947Z,13.16
2022-10-01T09:08:44.906Z,12.90
2022-10-01T09:11:26.450Z,13.03
2022-10-01T09:14:12.195Z,12.88
2022-10-01T09:16:47.245Z,13.06
2022-10-01T09:19:35.955Z,13.01
2022-10-01T09:22:11.219Z,13.00
2022-10-01T09:24:44.408Z,13.38
2022-10-01T09:27:16.504Z,13.38
2022-10-01T09:29:50.821Z,13.48
2022-10-01T09:32:22.711Z,13.72
2022-10-01T09:34:50.696Z,14.04
2022-10-01T09:37:27.192Z,14.20
2022-10-01T09:40:05.837Z,13.85
2022-10-01T09:42:35.144Z,13.53
2022-10-01T09:45:03.134Z,13.88
2022-10-01T09:47:34.078Z,13.77
2022-10-01T09:50:05.942Z,13.59
2022-10-01T09:52:35.599Z,13.59
2022-10-01T09:55:06.205Z,13.71
2022-10-01T09:57:40.341Z,13.61
2022-10-01T10:00:11.835Z,13.60
2022-10-01T10:02:48.211Z,13.54
2022-10-01T10:05:19.648Z,13.28
2022-10-01T10:07:51.191Z,13.14
2022-10-01T10:10:25.522Z,13.11
2022-10-01T10:13:00.254Z,13.31
2022-10-01T10:15:31.842Z,13.24
2022-10-01T10:18:08.019Z,13.05
2022-10-01T10:20:40.567Z,12.78
2022-10-01T10:23:13.127Z,13.01
2022-10-01T10:25:41.554Z,13.39
2022-10-01T10:28:20.758Z,13.38
2022-10-01T10:30:49.486Z,13.39
2022-10-01T10:33:21.023Z,13.30
2022-10-01T10:35:59.257Z,13.14
2022-10-01T10:38:30.613Z,13.40
2022-10-01T10:40:59.272Z,13.77
2022-10-01T10:43:34.384Z,13.63
2022-10-01T10:46:10.225Z,13.74
2022-10-01T10:48:44.160Z,14.42
2022-10-01T10:51:12.458Z,14.10
2022-10-01T10:53:45.483Z,14.32
2022-10-01T10:56:24.971Z,14.33
2022-10-01T10:58:55.890Z,14.43
2022-10-01T11:01:32.746Z,14.19
2022-10-01T11:04:04.782Z,14.44
2022-10-01T11:06:33.294Z,14.68
2022-10-01T11:09:07.252Z,14.41
2022-10-01T11:11:51.881Z,15.06
2022-10-01T11:17:55.339Z,15.43
2022-10-01T11:20:37.109Z,15.53
2022-10-01T11:23:27.754Z,15.63
2022-10-01T11:26:10.337Z,15.93
2022-10-01T11:28:49.959Z,16.25
2022-10-01T11:31:32.576Z,15.96
2022-10-01T11:34:14.694Z,15.77
2022-10-01T11:36:55.444Z,15.87
2022-10-01T11:39:27.199Z,16.17
2022-10-01T11:42:02.676Z,16.40
2022-10-01T11:44:37.012Z,15.83
2022-10-01T11:47:10.987Z,16.18
2022-10-01T11:49:46.363Z,16.15
2022-10-01T11:52:22.047Z,16.46
2022-10-01T11:55:21.952Z,16.11
2022-10-01T11:58:14.115Z,16.27
2022-10-01T12:00:44.025Z,16.78
2022-10-01T12:03:20.628Z,16.83
2022-10-01T12:05:48.781Z,16.04
2022-10-01T12:08:22.544Z,16.14
2022-10-01T12:10:58.808Z,16.00
2022-10-01T12:13:32.927Z,15.53
2022-10-01T12:16:09.447Z,15.70
2022-10-01T12:18:51.175Z,15.27
2022-10-01T12:21:24.040Z,15.08
2022-10-01T12:23:55.605Z,15.06
2022-10-01T12:26:35.557Z,15.33
2022-10-01T12:29:11.815Z,15.64
2022-10-01T12:31:49.073Z,15.91
2022-10-01T12:34:28.984Z,16.45
2022-10-01T12:37:10.293Z,16.64
2022-10-01T12:39:52.352Z,17.10
2022-10-01T12:42:37.552Z,17.13
2022-10-01T12:45:17.518Z,17.39
2022-10-01T12:47:52.584Z,17.60
2022-10-01T12:50:35.510Z,17.68
2022-10-01T12:53:20.588Z,17.58
2022-10-01T12:55:58.884Z,17.14
2022-10-01T12:58:47.144Z,16.88
2022-10-01T13:01:25.280Z,16.40
2022-10-01T13:04:12.263Z,16.52
2022-10-01T13:06:54.663Z,16.41
2022-10-01T13:09:29.566Z,16.48
2022-10-01T13:12:11.345Z,16.72
2022-10-01T13:14:42.206Z,16.83
2022-10-01T13:17:17.277Z,16.83
2022-10-01T13:19:53.216Z,16.92
2022-10-01T13:22:34.102Z,16.95
2022-10-01T13:25:25.997Z,17.15
2022-10-01T13:28:02.106Z,17.22
2022-10-01T13:30:36.082Z,16.93
2022-10-01T13:33:05.334Z,16.67
2022-10-01T13:35:36.564Z,16.93
2022-10-01T13:38:17.184Z,16.98
2022-10-01T13:40:45.482Z,16.80
2022-10-01T13:43:19.145Z,17.02
2022-10-01T13:45:48.151Z,17.40
2022-10-01T13:48:20.319Z,17.64
2022-10-01T13:51:03.460Z,17.80
2022-10-01T13:53:34.750Z,17.43
2022-10-01T13:56:03.600Z,17.23
2022-10-01T13:58:40.273Z,17.25
2022-10-01T14:01:28.786Z,16.87
2022-10-01T14:04:05.139Z,16.72
2022-10-01T14:06:42.649Z,16.61
2022-10-01T14:09:17.426Z,16.54
2022-10-01T14:12:07.043Z,16.48
2022-10-01T14:14:55.242Z,16.13
2022-10-01T14:17:26.472Z,16.35
2022-10-01T14:19:54.768Z,16.74
2022-10-01T14:22:38.428Z,16.93
2022-10-01T14:25:21.073Z,17.22
2022-10-01T14:27:59.544Z,17.10
2022-10-01T14:30:37.027Z,17.35
2022-10-01T14:33:23.108Z,17.26
2022-10-01T14:35:59.530Z,17.26
2022-10-01T14:38:27.323Z,17.22
2022-10-01T14:40:56.497Z,17.30
2022-10-01T14:43:26.344Z,17.23
2022-10-01T14:45:57.622Z,17.26
2022-10-01T14:48:26.788Z,17.23
2022-10-01T14:50:56.437Z,17.24
2022-10-01T14:53:26.747Z,17.16
2022-10-01T14:56:06.179Z,17.05
2022-10-01T14:58:39.975Z,17.25
2022-10-01T15:01:08.499Z,17.41
2022-10-01T15:03:40.309Z,17.47
2022-10-01T15:06:13.883Z,17.33
2022-10-01T15:08:43.310Z,17.25
2022-10-01T15:11:15.612Z,17.00
2022-10-01T15:13:45.908Z,16.79
2022-10-01T15:16:15.776Z,16.94
2022-10-01T15:18:47.773Z,16.78
2022-10-01T15:21:21.009Z,16.65
2022-10-01T15:23:50.086Z,16.91
2022-10-01T15:26:25.293Z,16.64
2022-10-01T15:29:03.151Z,16.74
2022-10-01T15:31:31.485Z,16.78
2022-10-01T15:34:02.061Z,16.79
2022-10-01T15:36:30.271Z,16.87
2022-10-01T15:38:59.123Z,16.83
2022-10-01T15:41:32.769Z,16.64
2022-10-01T15:44:04.370Z,16.48
2022-10-01T15:46:35.089Z,16.59
2022-10-01T15:49:17.813Z,16.47
2022-10-01T15:52:11.200Z,16.22
2022-10-01T15:54:40.182Z,16.04
2022-10-01T15:57:10.076Z,15.98
2022-10-01T15:59:41.016Z,16.01
2022-10-01T16:02:11.507Z,15.88
2022-10-01T16:04:39.322Z,15.85
2022-10-01T16:07:07.174Z,15.86
2022-10-01T16:09:34.969Z,15.74
2022-10-01T16:12:06.398Z,15.74
2022-10-01T16:14:37.656Z,15.76
2022-10-01T16:17:30.190Z,15.67
2022-10-01T16:20:00.236Z,15.58
2022-10-01T16:22:31.746Z,15.63
2022-10-01T16:25:00.977Z,15.45
2022-10-01T16:27:30.405Z,15.62
2022-10-01T16:30:05.455Z,15.73
2022-10-01T16:32:34.538Z,15.73
2022-10-01T16:35:17.725Z,15.71
2022-10-01T16:37:47.559Z,15.51
2022-10-01T16:40:16.447Z,15.40
2022-10-01T16:42:45.212Z,15.36
2022-10-01T16:45:17.876Z,15.18
2022-10-01T16:47:46.213Z,15.02
2022-10-01T16:50:17.561Z,14.96
2022-10-01T16:52:46.074Z,14.81
2022-10-01T16:55:20.280Z,14.88
2022-10-01T16:57:47.990Z,14.84
2022-10-01T17:00:19.284Z,14.73
2022-10-01T17:02:47.192Z,14.68
2022-10-01T17:05:19.122Z,14.69
2022-10-01T17:07:47.258Z,14.47
2022-10-01T17:10:16.463Z,14.54
2022-10-01T17:12:44.724Z,14.44
2022-10-01T17:15:15.656Z,14.38
2022-10-01T17:17:44.892Z,14.24
2022-10-01T17:20:12.781Z,14.30
2022-10-01T17:22:42.753Z,14.26
2022-10-01T17:25:15.733Z,14.18
2022-10-01T17:27:43.563Z,14.08
2022-10-01T17:30:11.812Z,14.08
2022-10-01T17:32:42.817Z,13.94
2022-10-01T17:35:13.886Z,13.98
2022-10-01T17:37:42.447Z,14.01
2022-10-01T17:40:11.827Z,13.86
2022-10-01T17:42:39.669Z,13.89
2022-10-01T17:45:12.903Z,13.86
2022-10-01T17:47:45.060Z,13.82
2022-10-01T17:50:14.938Z,13.73
2022-10-01T17:52:43.167Z,13.74
2022-10-01T17:55:12.701Z,13.61
2022-10-01T17:57:40.551Z,13.57
2022-10-01T18:00:09.471Z,13.40
2022-10-01T18:02:42.240Z,13.22
2022-10-01T18:05:12.200Z,13.08
2022-10-01T18:07:42.027Z,12.98
2022-10-01T18:10:13.388Z,12.71
2022-10-01T18:12:41.317Z,12.84
2022-10-01T18:15:09.895Z,12.83
2022-10-01T18:17:43.485Z,12.78
2022-10-01T18:20:19.358Z,12.76
2022-10-01T18:22:48.557Z,12.81
2022-10-01T18:25:16.962Z,12.78
2022-10-01T18:27:46.050Z,12.70
2022-10-01T18:30:14.212Z,12.67
2022-10-01T18:32:45.998Z,12.72
2022-10-01T18:35:23.134Z,12.72
2022-10-01T18:37:55.722Z,12.66
2022-10-01T18:40:28.359Z,12.64
2022-10-01T18:43:00.928Z,12.46
2022-10-01T18:45:39.714Z,12.54
2022-10-01T18:48:27.303Z,12.53
2022-10-01T18:51:07.140Z,12.47
2022-10-01T18:53:51.136Z,12.45
2022-10-01T18:56:34.028Z,12.43
2022-10-01T18:59:19.019Z,12.40
2022-10-01T19:02:01.326Z,12.36
2022-10-01T19:04:51.487Z,12.27
2022-10-01T19:07:34.849Z,12.17
2022-10-01T19:10:17.077Z,12.19
2022-10-01T19:12:55.196Z,12.16
2022-10-01T19:15:30.218Z,12.11
2022-10-01T19:18:14.264Z,12.04
2022-10-01T19:20:55.038Z,11.91
2022-10-01T19:23:56.123Z,11.99
2022-10-01T19:26:32.908Z,12.11
2022-10-01T19:29:14.432Z,12.02
2022-10-01T19:31:50.240Z,12.03
2022-10-01T19:34:25.774Z,12.12
2022-10-01T19:36:58.186Z,12.09
2022-10-01T19:39:30.319Z,12.07
2022-10-01T19:42:03.013Z,12.03
2022-10-01T19:44:36.561Z,11.98
2022-10-01T19:47:16.658Z,12.07
2022-10-01T19:49:48.723Z,12.05
2022-10-01T19:52:18.473Z,11.93
2022-10-01T19:54:52.392Z,11.92
2022-10-01T19:57:25.767Z,11.94
2022-10-01T19:59:57.135Z,12.04
2022-10-01T20:02:35.408Z,12.05
2022-10-01T20:05:06.890Z,12.05
2022-10-01T20:07:42.971Z,12.00
2022-10-01T20:10:20.072Z,11.95
2022-10-01T20:12:58.849Z,11.91
2022-10-01T20:15:35.789Z,11.86
2022-10-01T20:18:16.907Z,11.83
2022-10-01T20:21:05.346Z,11.79
2022-10-01T20:23:41.039Z,11.67
2022-10-01T20:26:18.225Z,11.80
2022-10-01T20:28:58.282Z,11.59
2022-10-01T20:31:31.062Z,11.73
2022-10-01T20:34:06.904Z,11.63
2022-10-01T20:36:40.343Z,11.70
2022-10-01T20:39:19.883Z,11.66
2022-10-01T20:41:49.333Z,11.54
2022-10-01T20:44:22.859Z,11.57
2022-10-01T20:46:54.529Z,11.62
2022-10-01T20:49:29.728Z,11.65
2022-10-01T20:52:02.913Z,11.65
2022-10-01T20:54:35.244Z,11.65
2022-10-01T20:57:11.841Z,11.58
2022-10-01T20:59:44.268Z,11.71
2022-10-01T21:02:30.060Z,11.68
2022-10-01T21:05:05.097Z,11.62
2022-10-01T21:07:39.334Z,11.60
2022-10-01T21:10:18.179Z,11.57
2022-10-01T21:12:54.373Z,11.54
2022-10-01T21:15:28.594Z,11.60
2022-10-01T21:18:03.827Z,11.57
2022-10-01T21:20:46.750Z,11.59
2022-10-01T21:23:31.249Z,11.58
2022-10-01T21:26:10.427Z,11.51
2022-10-01T21:28:51.738Z,11.43
2022-10-01T21:31:33.553Z,11.50
2022-10-01T21:34:04.333Z,11.37
2022-10-01T21:36:38.582Z,11.29
2022-10-01T21:39:12.256Z,11.31
2022-10-01T21:41:55.415Z,11.29
2022-10-01T21:44:54.326Z,11.43
2022-10-01T21:47:36.845Z,11.43
2022-10-01T21:50:12.001Z,11.32
2022-10-01T21:52:47.779Z,11.44
2022-10-01T21:55:41.823Z,11.50
2022-10-01T21:58:23.351Z,11.53
2022-10-01T22:01:00.288Z,11.50
2022-10-01T22:03:36.233Z,11.51
2022-10-01T22:06:12.134Z,11.57
2022-10-01T22:08:54.848Z,11.62
2022-10-01T22:11:27.206Z,11.61
2022-10-01T22:13:58.694Z,11.59
2022-10-01T22:16:30.284Z,11.59
2022-10-01T22:19:06.300Z,11.57
2022-10-01T22:21:38.328Z,11.65
2022-10-01T22:24:10.740Z,11.58
2022-10-01T22:26:43.223Z,11.61
2022-10-01T22:29:19.252Z,11.70
2022-10-01T22:31:50.075Z,11.62
2022-10-01T22:34:23.420Z,11.66
2022-10-01T22:36:55.485Z,11.59
2022-10-01T22:39:25.743Z,11.67
2022-10-01T22:42:00.030Z,11.61
2022-10-01T22:44:29.258Z,11.51
2022-10-01T22:47:15.535Z,11.42
2022-10-01T22:50:02.891Z,11.48
2022-10-01T22:52:40.320Z,11.47
2022-10-01T22:55:27.224Z,11.32
2022-10-01T22:58:21.871Z,11.45
2022-10-01T23:01:00.583Z,11.27
2022-10-01T23:03:37.144Z,11.24
2022-10-01T23:06:12.428Z,11.46
2022-10-01T23:08:46.422Z,11.37
2022-10-01T23:11:24.170Z,11.47
2022-10-01T23:14:03.229Z,11.42
2022-10-01T23:16:41.045Z,11.27
2022-10-01T23:19:23.990Z,11.34
2022-10-01T23:22:00.388Z,11.49
2022-10-01T23:24:47.199Z,11.45
2022-10-01T23:27:30.283Z,11.51
2022-10-01T23:30:07.510Z,11.39
2022-10-01T23:32:49.558Z,11.42
2022-10-01T23:35:20.443Z,11.55
2022-10-01T23:38:06.252Z,11.55
2022-10-01T23:40:37.504Z,11.57
2022-10-01T23:43:12.804Z,11.57
2022-10-01T23:45:47.552Z,11.56
2022-10-01T23:48:20.300Z,11.58
2022-10-01T23:50:55.247Z,11.61
2022-10-01T23:53:29.027Z,11.62
2022-10-01T23:56:20.713Z,11.67
2022-10-01T23:58:54.359Z,11.67
